Terminal Aerodrome Forecast
Issued by NWS Dodge City, KS

Home | Current Version | Previous Version | Text Only | Print | Product List | Glossary On
Versions: 1 2 3 4 5 6 7 8 9 10 11 12 13 14
000
FTUS43 KDDC 231137
TAFDDC
TAF
KDDC 231137Z 2312/2412 02005KT P6SM SCT120 SCT250
     FM231700 05011KT P6SM SCT200
     FM240000 08008KT P6SM FEW200
     FM240500 12005KT P6SM SKC=

USA.gov is the U.S. government's official web portal to all federal, state and local government web resources and services.